Time;durP1;ratioP1;P1;durP2;ratioP2;P2;SDS_P1;SDS_P2;PMS_P1;PMS_P2;Temp;Humidity;BMP_temperature;BMP_pressure;BME280_temperature;BME280_humidity;BME280_pressure;Samples;Min_cycle;Max_cycle;Signal;HPM_P1;HPM_P2
2023/04/23 00:00:12;;;;;;;10.43;8.40;;;13.50;99.90;;;;;;6287535;28;20075;-80
2023/04/23 00:03:16;;;;;;;10.73;8.70;;;13.50;99.90;;;;;;6287150;28;20105;-77
2023/04/23 00:06:18;;;;;;;10.48;9.35;;;13.40;99.90;;;;;;6288864;28;20450;-78
2023/04/23 00:09:23;;;;;;;12.57;9.70;;;13.30;99.90;;;;;;6289429;28;20049;-79
2023/04/23 00:12:25;;;;;;;12.50;9.60;;;13.30;99.90;;;;;;6285731;28;20060;-79
2023/04/23 00:15:27;;;;;;;14.55;9.48;;;13.20;99.90;;;;;;6287029;28;20059;-79
2023/04/23 00:18:30;;;;;;;12.63;11.32;;;13.20;99.90;;;;;;6287140;28;20041;-79
2023/04/23 00:21:32;;;;;;;21.95;18.27;;;13.10;99.90;;;;;;6287046;28;20048;-79
2023/04/23 00:24:35;;;;;;;15.02;10.77;;;13.10;99.90;;;;;;6285237;28;20041;-78
2023/04/23 00:27:36;;;;;;;19.52;12.05;;;13.10;99.90;;;;;;6285578;28;20056;-78
2023/04/23 00:30:38;;;;;;;14.45;11.70;;;13.10;99.90;;;;;;6287718;28;20055;-79
2023/04/23 00:33:41;;;;;;;15.15;12.02;;;13.10;99.90;;;;;;6286836;28;20597;-79
2023/04/23 00:36:43;;;;;;;15.30;12.32;;;13.00;99.90;;;;;;6282620;28;20057;-78
2023/04/23 00:39:44;;;;;;;15.23;11.52;;;13.00;99.90;;;;;;6283115;28;20049;-79
2023/04/23 00:42:47;;;;;;;16.05;12.13;;;13.00;99.90;;;;;;6285156;28;20041;-79
2023/04/23 00:45:49;;;;;;;14.90;11.93;;;12.90;99.90;;;;;;6284106;28;20163;-79
2023/04/23 00:48:53;;;;;;;16.10;11.65;;;12.90;99.90;;;;;;6284364;28;20091;-79
2023/04/23 00:51:55;;;;;;;15.68;12.40;;;12.90;99.90;;;;;;6284931;28;20049;-77
2023/04/23 00:54:56;;;;;;;19.05;15.50;;;12.90;99.90;;;;;;6283819;28;20139;-77
2023/04/23 00:57:58;;;;;;;13.68;11.07;;;12.90;99.90;;;;;;6282321;28;20546;-78
2023/04/23 01:01:03;;;;;;;16.65;11.52;;;12.90;99.90;;;;;;6282044;28;20056;-78
2023/04/23 01:04:08;;;;;;;18.60;13.32;;;12.90;99.90;;;;;;6282233;28;20053;-78
2023/04/23 01:07:11;;;;;;;13.38;10.98;;;12.90;99.90;;;;;;6281901;28;20393;-79
2023/04/23 01:10:13;;;;;;;18.77;9.57;;;12.80;99.90;;;;;;6281336;28;20052;-78
2023/04/23 01:13:15;;;;;;;15.85;10.18;;;12.80;99.90;;;;;;6280976;28;20045;-77
2023/04/23 01:16:16;;;;;;;11.52;9.57;;;12.70;99.90;;;;;;6281644;28;20559;-77
2023/04/23 01:19:20;;;;;;;13.52;11.35;;;12.70;99.90;;;;;;6280047;28;20499;-79
2023/04/23 01:22:23;;;;;;;17.75;10.20;;;12.70;99.90;;;;;;6280665;28;20049;-79
2023/04/23 01:25:24;;;;;;;12.20;10.93;;;12.70;99.90;;;;;;6280773;28;20057;-79
2023/04/23 01:28:26;;;;;;;11.52;10.32;;;12.60;99.90;;;;;;6278990;28;20049;-79
2023/04/23 01:31:29;;;;;;;13.23;9.63;;;12.60;99.90;;;;;;6281398;28;20041;-79
2023/04/23 01:34:32;;;;;;;13.38;10.55;;;12.60;99.90;;;;;;6280755;28;20056;-79
2023/04/23 01:37:37;;;;;;;31.90;13.13;;;12.60;99.90;;;;;;6281919;28;20055;-79
2023/04/23 01:40:39;;;;;;;12.05;10.88;;;12.60;99.90;;;;;;6283179;28;20052;-79
2023/04/23 01:43:42;;;;;;;12.13;10.32;;;12.60;99.90;;;;;;6281896;28;20068;-79
2023/04/23 01:46:44;;;;;;;11.23;9.35;;;12.60;99.90;;;;;;6282303;28;20045;-79
2023/04/23 01:49:46;;;;;;;12.52;8.88;;;12.70;99.90;;;;;;6283897;28;20060;-79
2023/04/23 01:52:49;;;;;;;14.50;9.15;;;12.70;99.90;;;;;;6283556;28;20044;-79
2023/04/23 01:55:52;;;;;;;14.15;9.10;;;12.70;99.90;;;;;;6281379;28;20045;-79
2023/04/23 01:58:54;;;;;;;12.52;9.15;;;12.70;99.90;;;;;;6280174;28;20052;-79
2023/04/23 02:01:56;;;;;;;12.95;9.00;;;12.70;99.90;;;;;;6281305;28;20053;-79
2023/04/23 02:04:58;;;;;;;10.02;7.90;;;12.70;99.90;;;;;;6258171;28;20045;-79
2023/04/23 02:08:02;;;;;;;11.38;7.97;;;12.70;99.90;;;;;;6256844;28;20048;-78
2023/04/23 02:11:06;;;;;;;9.27;8.30;;;12.60;99.90;;;;;;6256082;28;20045;-79
2023/04/23 02:14:09;;;;;;;10.38;9.30;;;12.60;99.90;;;;;;6257419;28;20053;-79
2023/04/23 02:17:11;;;;;;;8.43;7.55;;;12.60;99.90;;;;;;6256490;28;20057;-79
2023/04/23 02:20:12;;;;;;;13.13;8.02;;;12.60;99.90;;;;;;6258191;28;20049;-79
2023/04/23 02:23:15;;;;;;;10.13;8.18;;;12.60;99.90;;;;;;6259139;28;20045;-79
2023/04/23 02:26:18;;;;;;;7.72;6.93;;;12.60;99.90;;;;;;6258304;28;20049;-78
2023/04/23 02:29:20;;;;;;;9.70;7.18;;;12.60;99.90;;;;;;6257386;28;20045;-79
2023/04/23 02:32:21;;;;;;;10.73;6.97;;;12.60;99.90;;;;;;6258044;28;20133;-79
2023/04/23 02:35:23;;;;;;;9.65;7.22;;;12.60;99.90;;;;;;6258662;28;20041;-79
2023/04/23 02:38:26;;;;;;;10.40;7.18;;;12.60;99.90;;;;;;6258915;28;20042;-79
2023/04/23 02:41:28;;;;;;;7.32;6.32;;;12.60;99.90;;;;;;6257051;28;20057;-78
2023/04/23 02:44:30;;;;;;;12.07;6.90;;;12.70;99.90;;;;;;6259482;28;20049;-79
2023/04/23 02:47:31;;;;;;;7.65;6.85;;;12.70;99.90;;;;;;6257384;28;20132;-79
2023/04/23 02:50:33;;;;;;;7.57;6.72;;;12.70;99.90;;;;;;6257211;28;20052;-78
2023/04/23 02:53:37;;;;;;;10.55;7.00;;;12.70;99.90;;;;;;6257323;28;20041;-79
2023/04/23 02:56:38;;;;;;;9.50;7.30;;;12.70;99.90;;;;;;6249718;28;20568;-78
2023/04/23 02:59:40;;;;;;;9.27;7.32;;;12.70;99.90;;;;;;6245872;28;20057;-79
2023/04/23 03:02:41;;;;;;;10.57;7.15;;;12.70;99.90;;;;;;6246009;28;20048;-79
2023/04/23 03:05:43;;;;;;;9.25;7.13;;;12.80;99.90;;;;;;6245651;28;20460;-79
2023/04/23 03:08:46;;;;;;;8.15;7.10;;;12.80;99.90;;;;;;6244920;28;20489;-81
2023/04/23 03:11:48;;;;;;;8.23;6.97;;;12.80;99.90;;;;;;6245646;28;20045;-78
2023/04/23 03:14:50;;;;;;;11.23;7.60;;;12.80;99.90;;;;;;6246205;28;20052;-79
2023/04/23 03:17:52;;;;;;;9.52;7.38;;;12.80;99.90;;;;;;6246968;28;20049;-79
2023/04/23 03:20:54;;;;;;;8.48;7.07;;;12.80;99.90;;;;;;6245484;28;20076;-80
2023/04/23 03:23:57;;;;;;;8.05;6.50;;;12.80;99.90;;;;;;6247732;28;20050;-81
2023/04/23 03:26:58;;;;;;;7.80;6.25;;;12.80;99.90;;;;;;6249368;28;20419;-79
2023/04/23 03:30:00;;;;;;;7.68;6.85;;;12.70;99.90;;;;;;6250739;28;20050;-79
2023/04/23 03:33:02;;;;;;;8.32;7.40;;;12.60;99.90;;;;;;6250263;28;20049;-79
2023/04/23 03:36:05;;;;;;;8.38;7.57;;;12.60;99.90;;;;;;6250066;28;20041;-81
2023/04/23 03:39:09;;;;;;;7.03;6.32;;;12.60;99.90;;;;;;6250648;28;20535;-79
2023/04/23 03:42:10;;;;;;;6.35;4.95;;;12.60;99.90;;;;;;6250577;28;20123;-81
2023/04/23 03:45:13;;;;;;;4.95;4.55;;;12.60;99.90;;;;;;6249449;28;20041;-79
2023/04/23 03:48:14;;;;;;;8.40;5.07;;;12.60;99.90;;;;;;6250460;28;20050;-81
2023/04/23 03:51:16;;;;;;;9.15;6.90;;;12.50;99.90;;;;;;6250363;28;20041;-80
2023/04/23 03:54:19;;;;;;;10.57;6.13;;;12.50;99.90;;;;;;6249658;28;20512;-78
2023/04/23 03:57:21;;;;;;;7.63;6.68;;;12.40;99.90;;;;;;6251842;28;20555;-79
2023/04/23 04:00:23;;;;;;;9.55;7.22;;;12.40;99.90;;;;;;6249821;28;20051;-79
2023/04/23 04:03:25;;;;;;;8.10;7.10;;;12.40;99.90;;;;;;6260468;23;20030;-84
2023/04/23 04:06:27;;;;;;;10.25;7.50;;;12.30;99.90;;;;;;6226959;28;20046;-83
2023/04/23 04:09:30;;;;;;;18.00;8.35;;;12.40;99.90;;;;;;6226922;28;20053;-83
2023/04/23 04:12:32;;;;;;;12.48;8.10;;;12.40;99.90;;;;;;6226274;28;20050;-82
2023/04/23 04:15:33;;;;;;;13.88;8.55;;;12.30;99.90;;;;;;6226244;28;20071;-82
2023/04/23 04:18:35;;;;;;;10.02;8.80;;;12.20;99.90;;;;;;6225288;28;20068;-81
2023/04/23 04:21:37;;;;;;;10.40;8.80;;;12.20;99.90;;;;;;6226659;28;20053;-82
2023/04/23 04:24:40;;;;;;;11.38;9.88;;;12.20;99.90;;;;;;6225654;28;20049;-81
2023/04/23 04:27:42;;;;;;;14.27;10.52;;;12.10;99.90;;;;;;6225595;28;20472;-82
2023/04/23 04:30:44;;;;;;;12.30;11.05;;;12.10;99.90;;;;;;6225788;28;20050;-81
2023/04/23 04:33:46;;;;;;;13.23;11.25;;;12.10;99.90;;;;;;6226042;28;20053;-81
2023/04/23 04:36:47;;;;;;;16.65;12.52;;;12.10;99.90;;;;;;6222348;28;20388;-82
2023/04/23 04:39:51;;;;;;;14.15;11.70;;;12.10;99.90;;;;;;6225195;28;20508;-81
2023/04/23 04:42:53;;;;;;;21.27;13.25;;;12.20;99.90;;;;;;6225682;28;20493;-82
2023/04/23 04:45:57;;;;;;;18.08;12.88;;;12.10;99.90;;;;;;6225509;28;20459;-81
2023/04/23 04:48:59;;;;;;;15.90;13.45;;;12.10;99.90;;;;;;6225366;28;20500;-82
2023/04/23 04:52:01;;;;;;;17.02;11.40;;;12.20;99.90;;;;;;6224826;28;20081;-82
2023/04/23 04:55:05;;;;;;;15.57;11.10;;;12.20;99.90;;;;;;6224685;28;20059;-82
2023/04/23 04:58:07;;;;;;;14.65;10.98;;;12.20;99.90;;;;;;6225477;28;20181;-82
2023/04/23 05:01:09;;;;;;;22.85;11.55;;;12.20;99.90;;;;;;6225398;28;20141;-81
2023/04/23 05:04:11;;;;;;;14.07;11.05;;;12.20;99.90;;;;;;6224421;28;20061;-82
2023/04/23 05:07:12;;;;;;;13.65;10.85;;;12.20;99.90;;;;;;6225399;28;20046;-80
2023/04/23 05:10:16;;;;;;;15.23;10.82;;;12.20;99.90;;;;;;6226052;28;20046;-82
2023/04/23 05:13:17;;;;;;;14.77;11.35;;;12.20;99.90;;;;;;6225260;28;20053;-82
2023/04/23 05:16:20;;;;;;;14.38;10.05;;;12.30;99.90;;;;;;6226161;28;20054;-82
2023/04/23 05:19:22;;;;;;;16.23;9.68;;;12.30;99.90;;;;;;6225291;28;20128;-82
2023/04/23 05:22:24;;;;;;;14.63;10.50;;;12.30;99.90;;;;;;6220351;28;20428;-82
2023/04/23 05:25:27;;;;;;;12.55;9.43;;;12.30;99.90;;;;;;6224992;28;20416;-81
2023/04/23 05:28:29;;;;;;;14.60;9.30;;;12.30;99.90;;;;;;6225473;28;20042;-82
2023/04/23 05:31:30;;;;;;;10.57;9.30;;;12.30;99.90;;;;;;6224708;28;20041;-82
2023/04/23 05:34:32;;;;;;;13.18;9.88;;;12.20;99.90;;;;;;6224724;28;20361;-82
2023/04/23 05:37:34;;;;;;;11.50;9.35;;;12.30;99.90;;;;;;6225534;28;20057;-81
2023/04/23 05:40:37;;;;;;;12.85;8.95;;;12.30;99.90;;;;;;6225188;28;20156;-81
2023/04/23 05:43:39;;;;;;;12.80;9.48;;;12.50;99.90;;;;;;6224775;28;20143;-82
2023/04/23 05:46:40;;;;;;;10.07;8.27;;;13.00;99.90;;;;;;6224874;28;20046;-82
2023/04/23 05:49:42;;;;;;;8.57;7.35;;;13.50;99.90;;;;;;6225278;28;20045;-81
2023/04/23 05:52:44;;;;;;;7.03;6.38;;;13.60;99.90;;;;;;6224867;28;20128;-81
2023/04/23 05:55:47;;;;;;;8.38;7.13;;;13.60;99.90;;;;;;6224971;28;20049;-81
2023/04/23 05:58:48;;;;;;;12.35;7.05;;;13.40;99.90;;;;;;6221730;28;20053;-82
2023/04/23 06:01:51;;;;;;;14.10;6.85;;;13.30;99.90;;;;;;6201834;28;20409;-81
2023/04/23 06:04:53;;;;;;;11.30;7.80;;;13.20;99.90;;;;;;6200071;28;20046;-82
2023/04/23 06:07:54;;;;;;;8.00;6.78;;;13.20;99.90;;;;;;6200072;28;20042;-80
2023/04/23 06:10:57;;;;;;;6.43;5.75;;;13.20;99.90;;;;;;6200267;28;20497;-81
2023/04/23 06:13:59;;;;;;;7.65;6.10;;;13.50;99.90;;;;;;6200636;28;20420;-82
2023/04/23 06:17:01;;;;;;;6.00;5.50;;;14.70;99.90;;;;;;6201127;28;20471;-81
2023/04/23 06:20:04;;;;;;;8.50;5.10;;;15.70;99.90;;;;;;6200828;28;20039;-81
2023/04/23 06:23:06;;;;;;;5.05;4.50;;;15.70;99.90;;;;;;6200893;28;20043;-81
2023/04/23 06:26:09;;;;;;;6.47;4.57;;;16.30;99.90;;;;;;6201013;28;20081;-82
2023/04/23 06:29:11;;;;;;;3.90;3.60;;;16.60;99.90;;;;;;6222418;28;20057;-81
2023/04/23 06:32:13;;;;;;;5.45;3.13;;;16.40;99.90;;;;;;6225021;28;20050;-82
2023/04/23 06:35:14;;;;;;;4.57;3.65;;;16.30;99.90;;;;;;6225291;28;20046;-82
2023/04/23 06:38:17;;;;;;;3.17;2.92;;;16.10;99.90;;;;;;6225679;28;20506;-81
2023/04/23 06:41:20;;;;;;;3.80;3.45;;;15.90;99.90;;;;;;6227686;28;20128;-81
2023/04/23 06:44:22;;;;;;;3.92;3.60;;;15.70;99.90;;;;;;6229372;28;20050;-80
2023/04/23 06:47:24;;;;;;;4.40;4.00;;;15.60;99.90;;;;;;6200184;28;20050;-82
2023/04/23 06:50:25;;;;;;;3.88;3.08;;;15.50;99.90;;;;;;6200242;28;20101;-81
2023/04/23 06:53:27;;;;;;;5.38;4.32;;;15.40;99.90;;;;;;6199551;28;20061;-82
2023/04/23 06:56:30;;;;;;;3.05;2.75;;;15.30;99.90;;;;;;6200127;28;20060;-81
2023/04/23 06:59:32;;;;;;;2.65;2.45;;;15.70;99.90;;;;;;6203499;28;20058;-82
2023/04/23 07:02:33;;;;;;;3.25;2.45;;;16.50;99.90;;;;;;6208814;28;20042;-78
2023/04/23 07:05:35;;;;;;;2.28;2.08;;;17.50;99.90;;;;;;6223636;28;20046;-79
2023/04/23 07:08:38;;;;;;;4.03;2.08;;;18.00;99.90;;;;;;6215551;28;20042;-81
2023/04/23 07:11:41;;;;;;;4.75;3.47;;;18.10;99.90;;;;;;6206149;28;20050;-81
2023/04/23 07:14:43;;;;;;;5.38;1.80;;;18.50;99.90;;;;;;6205856;28;20042;-82
2023/04/23 07:17:44;;;;;;;3.33;1.08;;;18.90;99.90;;;;;;6206824;28;20046;-82
2023/04/23 07:20:46;;;;;;;1.65;1.38;;;19.00;99.90;;;;;;6204599;28;20050;-81
2023/04/23 07:23:48;;;;;;;2.60;1.88;;;18.40;99.90;;;;;;6204669;28;20145;-83
2023/04/23 07:26:51;;;;;;;4.95;1.83;;;18.00;99.90;;;;;;6204240;28;20058;-82
2023/04/23 07:29:53;;;;;;;2.58;1.60;;;17.80;99.90;;;;;;6221650;28;20041;-82
2023/04/23 07:32:55;;;;;;;2.17;1.33;;;17.70;99.90;;;;;;6228106;28;20053;-83
2023/04/23 07:35:57;;;;;;;1.60;1.40;;;17.50;99.90;;;;;;6227574;28;20512;-83
2023/04/23 07:38:58;;;;;;;2.67;1.40;;;17.30;99.90;;;;;;6228882;28;20350;-85
2023/04/23 07:42:02;;;;;;;2.75;1.52;;;17.20;99.90;;;;;;6223230;28;20053;-82
2023/04/23 07:45:05;;;;;;;2.65;1.73;;;17.20;99.90;;;;;;6225269;28;20064;-83
2023/04/23 07:48:07;;;;;;;1.83;1.40;;;17.50;99.90;;;;;;6218750;28;20077;-82
2023/04/23 07:51:09;;;;;;;1.45;1.35;;;17.70;99.90;;;;;;6223335;28;20042;-85
2023/04/23 07:54:11;;;;;;;5.25;3.47;;;18.20;99.90;;;;;;6205724;28;20050;-82
2023/04/23 07:57:15;;;;;;;1.10;1.10;;;18.60;99.90;;;;;;6204199;28;20054;-84
2023/04/23 08:00:17;;;;;;;3.38;1.60;;;18.90;99.90;;;;;;6203539;28;20101;-84
2023/04/23 08:03:19;;;;;;;6.65;6.13;;;19.60;99.90;;;;;;6203529;28;20049;-84
2023/04/23 08:06:20;;;;;;;3.78;1.25;;;19.70;99.90;;;;;;6203986;28;20054;-84
2023/04/23 08:09:22;;;;;;;2.60;1.38;;;19.70;99.90;;;;;;6208360;28;20058;-81
2023/04/23 08:12:25;;;;;;;7.15;5.45;;;19.60;99.90;;;;;;6207408;28;20045;-83
2023/04/23 08:15:27;;;;;;;15.60;14.00;;;20.30;99.90;;;;;;6211407;28;20048;-81
2023/04/23 08:18:29;;;;;;;2.30;2.10;;;20.40;99.90;;;;;;6228419;28;20049;-83
2023/04/23 08:21:31;;;;;;;4.20;3.80;;;19.90;99.90;;;;;;6227887;28;20100;-81
2023/04/23 08:24:33;;;;;;;10.55;2.65;;;19.40;99.90;;;;;;6227797;28;20046;-80
2023/04/23 08:27:36;;;;;;;7.93;5.45;;;20.00;99.90;;;;;;6228894;28;20050;-81
2023/04/23 08:30:38;;;;;;;2.10;1.30;;;21.20;99.90;;;;;;6227511;28;20093;-81
2023/04/23 08:33:40;;;;;;;2.35;1.02;;;22.50;99.90;;;;;;6228119;28;20060;-80
2023/04/23 08:36:42;;;;;;;3.83;1.17;;;23.30;99.90;;;;;;6227650;28;20633;-81
2023/04/23 08:39:43;;;;;;;2.95;1.83;;;23.70;99.90;;;;;;6227135;28;20056;-80
2023/04/23 08:42:50;;;;;;;1.95;1.85;;;24.10;98.80;;;;;;6224832;28;20066;-83
2023/04/23 08:45:53;;;;;;;1.85;1.33;;;24.50;97.00;;;;;;6207587;28;20054;-82
2023/04/23 08:48:58;;;;;;;1.20;1.10;;;25.00;95.90;;;;;;6204618;28;20074;-82
2023/04/23 08:52:13;;;;;;;2.33;1.63;;;25.20;94.50;;;;;;6204417;28;20050;-83
2023/04/23 08:55:17;;;;;;;2.45;1.25;;;25.40;91.50;;;;;;6204353;28;20050;-82
2023/04/23 08:58:21;;;;;;;4.78;1.90;;;24.90;90.50;;;;;;6204625;28;20068;-82
2023/04/23 09:01:23;;;;;;;1.35;1.25;;;23.70;89.10;;;;;;6204355;28;20047;-84
2023/04/23 09:04:25;;;;;;;1.60;1.50;;;23.10;90.50;;;;;;6203392;28;20775;-84
2023/04/23 09:07:27;;;;;;;2.47;1.50;;;23.20;90.20;;;;;;6203440;28;20132;-84
2023/04/23 09:10:29;;;;;;;6.95;1.63;;;23.20;90.40;;;;;;6204134;28;20057;-84
2023/04/23 09:13:34;;;;;;;3.65;1.73;;;23.70;90.50;;;;;;6211788;28;20511;-84
2023/04/23 09:16:36;;;;;;;1.63;1.52;;;24.10;88.20;;;;;;6215170;28;20053;-81
2023/04/23 09:19:39;;;;;;;3.47;1.52;;;23.90;88.00;;;;;;6227438;28;20053;-83
2023/04/23 09:22:42;;;;;;;2.75;1.45;;;23.70;87.30;;;;;;6217909;28;20049;-83
2023/04/23 09:25:44;;;;;;;1.85;1.27;;;23.50;87.50;;;;;;6204233;28;20670;-83
2023/04/23 09:28:50;;;;;;;2.00;1.42;;;23.00;84.70;;;;;;6203313;28;20042;-82
2023/04/23 09:31:53;;;;;;;3.53;2.15;;;22.60;85.70;;;;;;6203836;28;20097;-84
2023/04/23 09:34:57;;;;;;;2.25;1.60;;;23.20;87.30;;;;;;6205335;28;20110;-82
2023/04/23 09:37:58;;;;;;;9.63;2.30;;;24.10;86.20;;;;;;6205624;28;20438;-84
2023/04/23 09:41:19;;;;;;;2.22;2.03;;;24.40;83.60;;;;;;6208076;28;20042;-84
2023/04/23 09:44:22;;;;;;;1.55;1.25;;;24.30;82.50;;;;;;6174799;28;20061;-83
2023/04/23 09:47:24;;;;;;;5.55;1.98;;;24.40;82.40;;;;;;6211285;28;20148;-81
2023/04/23 09:50:33;;;;;;;3.25;1.23;;;24.40;80.50;;;;;;6217367;28;20042;-83
2023/04/23 09:53:42;;;;;;;3.97;1.30;;;24.00;79.90;;;;;;6206715;28;20050;-82
2023/04/23 09:56:44;;;;;;;2.65;1.10;;;24.00;80.40;;;;;;6208101;28;20046;-83
2023/04/23 09:59:49;;;;;;;5.72;1.83;;;24.00;80.50;;;;;;6208701;28;20512;-82
2023/04/23 10:02:52;;;;;;;3.10;2.35;;;24.00;79.50;;;;;;6206509;28;20124;-83
2023/04/23 10:05:54;;;;;;;2.10;1.85;;;23.80;79.10;;;;;;6204774;28;20042;-84
2023/04/23 10:08:57;;;;;;;4.00;3.60;;;23.80;79.10;;;;;;6200894;28;20046;-84
2023/04/23 10:12:01;;;;;;;2.58;2.35;;;24.00;78.90;;;;;;6203151;28;20046;-84
2023/04/23 10:15:05;;;;;;;2.33;1.65;;;23.90;77.80;;;;;;6205564;28;20084;-83
2023/04/23 10:18:08;;;;;;;1.33;1.15;;;23.50;77.90;;;;;;6210015;28;20049;-82
2023/04/23 10:21:11;;;;;;;1.80;1.33;;;23.20;77.80;;;;;;6206768;28;20042;-83
2023/04/23 10:24:14;;;;;;;1.48;1.38;;;23.00;78.50;;;;;;6206306;28;20101;-83
2023/04/23 10:27:16;;;;;;;2.22;1.30;;;23.00;77.70;;;;;;6208352;28;20058;-82
2023/04/23 10:30:20;;;;;;;6.40;2.72;;;22.80;77.10;;;;;;6205766;28;20532;-83
2023/04/23 10:33:22;;;;;;;1.80;1.65;;;22.60;78.40;;;;;;6209474;28;20054;-82
2023/04/23 10:36:26;;;;;;;1.30;1.20;;;22.70;77.90;;;;;;6216646;28;20467;-82
2023/04/23 10:39:34;;;;;;;2.80;1.90;;;23.00;77.60;;;;;;6177444;28;20408;-84
2023/04/23 10:42:36;;;;;;;2.03;1.63;;;23.10;76.60;;;;;;6214454;28;20039;-84
2023/04/23 10:45:39;;;;;;;7.13;1.77;;;23.10;77.00;;;;;;6211276;28;20113;-82
2023/04/23 10:49:06;;;;;;;1.73;1.20;;;22.90;76.30;;;;;;6212727;28;21227;-82
2023/04/23 10:52:09;;;;;;;1.05;0.95;;;22.60;76.90;;;;;;6208292;28;20058;-83
2023/04/23 10:55:20;;;;;;;1.70;1.40;;;22.70;77.50;;;;;;6205519;28;20069;-82
2023/04/23 10:58:23;;;;;;;4.70;1.98;;;22.70;76.80;;;;;;6208483;28;20046;-83
2023/04/23 11:01:28;;;;;;;1.60;1.30;;;23.10;76.80;;;;;;6207579;28;21194;-82
2023/04/23 11:04:30;;;;;;;2.35;1.17;;;23.30;75.40;;;;;;6208537;28;20045;-83
2023/04/23 11:07:33;;;;;;;2.05;1.30;;;23.30;74.50;;;;;;6206295;28;20062;-82
2023/04/23 11:10:54;;;;;;;2.65;1.33;;;23.30;74.40;;;;;;6201432;28;20077;-82
2023/04/23 11:13:56;;;;;;;1.10;1.00;;;23.60;74.30;;;;;;6207020;28;20145;-82
2023/04/23 11:17:00;;;;;;;1.48;1.15;;;24.00;73.90;;;;;;6205167;28;20088;-82
2023/04/23 11:20:12;;;;;;;1.80;1.30;;;24.00;72.60;;;;;;6209552;28;20037;-84
2023/04/23 11:23:31;;;;;;;1.20;1.10;;;24.00;71.60;;;;;;6208180;28;20049;-84
2023/04/23 11:26:34;;;;;;;;;;;24.10;70.50;;;;;;6205969;28;20095;-83
2023/04/23 11:29:38;;;;;;;2.97;1.63;;;24.50;72.90;;;;;;6208142;28;19928;-83
2023/04/23 11:32:44;;;;;;;2.50;1.10;;;25.10;72.30;;;;;;6211137;28;20052;-83
2023/04/23 11:35:46;;;;;;;4.07;1.00;;;25.70;70.60;;;;;;6205955;28;20558;-82
2023/04/23 11:38:47;;;;;;;1.88;1.15;;;26.20;69.50;;;;;;6208471;28;20050;-82
2023/04/23 11:41:51;;;;;;;1.50;0.98;;;26.50;67.00;;;;;;6207404;28;20137;-83
2023/04/23 11:44:52;;;;;;;1.45;0.73;;;26.70;65.30;;;;;;6207872;28;20531;-83
2023/04/23 11:47:57;;;;;;;2.53;1.27;;;26.80;63.10;;;;;;6212133;28;20046;-83
2023/04/23 11:50:58;;;;;;;1.35;1.10;;;26.10;63.20;;;;;;6210866;28;20042;-83
2023/04/23 11:54:04;;;;;;;2.28;1.10;;;25.70;63.90;;;;;;6213258;28;20050;-84
2023/04/23 11:57:07;;;;;;;1.20;1.10;;;25.70;63.90;;;;;;6210866;28;20042;-83
2023/04/23 12:00:14;;;;;;;1.70;0.73;;;25.90;63.90;;;;;;6208520;28;20390;-83
2023/04/23 12:03:18;;;;;;;0.70;0.70;;;25.90;62.80;;;;;;6211392;28;20053;-84
2023/04/23 12:06:20;;;;;;;0.90;0.57;;;25.90;63.20;;;;;;6212260;28;20041;-82
2023/04/23 12:09:23;;;;;;;2.08;0.73;;;25.90;62.50;;;;;;6207648;28;20208;-86
2023/04/23 12:12:33;;;;;;;1.77;1.00;;;25.80;62.10;;;;;;6211849;28;20058;-81
2023/04/23 12:15:45;;;;;;;0.80;0.57;;;25.70;61.90;;;;;;6213540;28;20056;-83
2023/04/23 12:18:53;;;;;;;1.65;0.88;;;25.70;61.00;;;;;;6211664;28;20119;-83
2023/04/23 12:21:57;;;;;;;0.95;0.90;;;25.70;61.10;;;;;;6210269;28;20042;-82
2023/04/23 12:25:02;;;;;;;1.40;1.00;;;26.20;60.60;;;;;;6206258;28;20057;-83
2023/04/23 12:28:05;;;;;;;1.13;1.00;;;26.50;60.10;;;;;;6208856;28;20070;-84
2023/04/23 12:31:07;;;;;;;2.17;1.90;;;26.60;59.30;;;;;;6209822;28;20089;-81
2023/04/23 12:34:10;;;;;;;1.52;1.02;;;26.90;58.90;;;;;;6208848;28;20042;-82
2023/04/23 12:37:12;;;;;;;0.68;0.68;;;27.00;57.80;;;;;;6210963;28;20045;-81
2023/04/23 12:40:14;;;;;;;3.03;0.75;;;26.80;56.50;;;;;;6213275;28;20045;-83
2023/04/23 12:43:15;;;;;;;3.30;0.68;;;26.30;57.20;;;;;;6212979;28;20042;-82
2023/04/23 12:46:17;;;;;;;0.90;0.70;;;26.30;57.50;;;;;;6209584;28;20042;-82
2023/04/23 12:49:20;;;;;;;4.90;1.20;;;26.40;56.70;;;;;;6208782;28;20050;-82
2023/04/23 12:52:22;;;;;;;2.50;0.93;;;26.30;56.10;;;;;;6209079;28;20523;-82
2023/04/23 12:55:24;;;;;;;1.25;0.93;;;26.30;54.60;;;;;;6206903;28;20042;-83
2023/04/23 12:58:26;;;;;;;0.88;0.50;;;25.80;54.40;;;;;;6210014;28;20077;-80
2023/04/23 13:01:28;;;;;;;0.63;0.40;;;25.80;54.30;;;;;;6206026;28;20050;-80
2023/04/23 13:04:33;;;;;;;0.85;0.68;;;25.80;54.30;;;;;;6206386;28;20050;-80
2023/04/23 13:07:35;;;;;;;1.52;1.02;;;26.00;54.20;;;;;;6210934;28;20050;-82
2023/04/23 13:10:37;;;;;;;2.13;0.85;;;26.00;53.60;;;;;;6205112;28;20050;-81
2023/04/23 13:13:38;;;;;;;0.70;0.57;;;26.20;53.30;;;;;;6203691;28;20053;-81
2023/04/23 13:16:40;;;;;;;0.47;0.45;;;26.50;53.20;;;;;;6206176;28;20053;-80
2023/04/23 13:19:43;;;;;;;2.70;0.70;;;26.70;52.20;;;;;;6205478;28;20720;-80
2023/04/23 13:22:45;;;;;;;6.28;0.70;;;26.40;51.00;;;;;;6202153;28;20050;-79
2023/04/23 13:25:47;;;;;;;0.75;0.57;;;25.70;51.90;;;;;;6205976;28;20050;-79
2023/04/23 13:28:48;;;;;;;0.40;0.40;;;24.90;52.60;;;;;;6206344;28;20042;-79
2023/04/23 13:31:50;;;;;;;0.85;0.65;;;24.70;54.00;;;;;;6202982;28;20056;-80
2023/04/23 13:34:53;;;;;;;0.95;0.47;;;24.80;53.20;;;;;;6204065;28;20045;-80
2023/04/23 13:37:55;;;;;;;1.25;0.80;;;24.60;53.80;;;;;;6204507;28;20053;-79
2023/04/23 13:40:57;;;;;;;0.40;0.40;;;25.10;54.20;;;;;;6207604;28;20042;-80
2023/04/23 13:43:59;;;;;;;1.65;0.57;;;25.40;52.80;;;;;;6201864;28;20061;-79
2023/04/23 13:47:01;;;;;;;1.65;0.60;;;25.50;53.30;;;;;;6204724;28;20053;-80
2023/04/23 13:50:05;;;;;;;1.42;0.70;;;25.60;51.60;;;;;;6207734;28;20058;-79
2023/04/23 13:53:08;;;;;;;5.63;4.30;;;24.80;51.80;;;;;;6207349;28;20034;-80
2023/04/23 13:56:09;;;;;;;2.65;0.65;;;24.50;52.80;;;;;;6198001;28;20053;-79
2023/04/23 13:59:11;;;;;;;1.73;1.63;;;24.50;53.10;;;;;;6207525;28;20050;-79
2023/04/23 14:02:13;;;;;;;0.80;0.80;;;24.40;53.40;;;;;;6205851;28;20054;-80
2023/04/23 14:05:16;;;;;;;0.77;0.70;;;24.20;53.60;;;;;;6208154;28;20441;-80
2023/04/23 14:08:18;;;;;;;0.50;0.40;;;24.00;54.40;;;;;;6216614;28;20046;-80
2023/04/23 14:11:21;;;;;;;1.88;0.77;;;24.00;53.90;;;;;;6220229;28;20050;-79
2023/04/23 14:14:23;;;;;;;3.88;0.40;;;24.00;54.30;;;;;;6207700;28;20056;-79
2023/04/23 14:17:24;;;;;;;2.85;0.52;;;23.80;54.20;;;;;;6203569;28;20054;-80
2023/04/23 14:20:27;;;;;;;0.80;0.60;;;23.60;54.70;;;;;;6205821;28;20052;-79
2023/04/23 14:23:44;;;;;;;2.85;0.68;;;23.60;55.50;;;;;;6206838;28;20512;-79
2023/04/23 14:26:47;;;;;;;1.38;0.52;;;23.70;54.80;;;;;;6203633;28;20050;-80
2023/04/23 14:29:52;;;;;;;0.60;0.40;;;23.60;55.20;;;;;;6206173;28;20066;-80
2023/04/23 14:32:55;;;;;;;0.85;0.63;;;23.60;56.20;;;;;;6209717;28;20052;-81
2023/04/23 14:35:58;;;;;;;2.17;1.58;;;23.40;56.00;;;;;;6206884;28;20050;-81
2023/04/23 14:39:03;;;;;;;1.65;0.70;;;23.40;55.30;;;;;;6204158;28;20042;-80
2023/04/23 14:42:05;;;;;;;1.05;0.80;;;23.20;55.10;;;;;;6215792;28;20768;-80
2023/04/23 14:45:08;;;;;;;0.50;0.50;;;23.20;55.50;;;;;;6217935;28;20050;-81
2023/04/23 14:48:10;;;;;;;1.10;0.50;;;23.30;55.80;;;;;;6208061;28;20042;-79
2023/04/23 14:51:13;;;;;;;1.08;0.90;;;23.60;55.60;;;;;;6207900;28;20062;-79
2023/04/23 14:54:15;;;;;;;6.95;1.63;;;23.80;55.50;;;;;;6207170;28;20057;-80
2023/04/23 14:57:16;;;;;;;1.77;0.68;;;23.90;55.90;;;;;;6204749;28;20042;-79
2023/04/23 15:00:21;;;;;;;2.63;0.80;;;24.00;54.80;;;;;;6204849;28;20467;-79
2023/04/23 15:03:22;;;;;;;1.35;0.70;;;24.10;54.80;;;;;;6204914;28;20173;-79
2023/04/23 15:06:25;;;;;;;10.07;1.55;;;24.20;54.70;;;;;;6206164;28;20054;-79
2023/04/23 15:09:27;;;;;;;0.88;0.50;;;24.10;54.30;;;;;;6204730;28;20131;-79
2023/04/23 15:12:48;;;;;;;0.93;0.68;;;23.80;54.70;;;;;;6203080;28;20653;-79
2023/04/23 15:15:52;;;;;;;1.77;0.80;;;23.80;55.10;;;;;;6202619;28;20055;-79
2023/04/23 15:18:53;;;;;;;0.98;0.75;;;23.70;54.90;;;;;;6205867;28;20103;-80
2023/04/23 15:21:56;;;;;;;1.02;0.70;;;23.40;54.90;;;;;;6208667;28;20061;-80
2023/04/23 15:24:58;;;;;;;4.95;1.25;;;23.20;55.40;;;;;;6207064;28;20053;-79
2023/04/23 15:28:00;;;;;;;2.55;0.75;;;23.00;55.40;;;;;;6210107;28;20057;-78
2023/04/23 15:31:01;;;;;;;1.40;0.75;;;22.80;55.80;;;;;;6207810;28;20046;-79
2023/04/23 15:34:05;;;;;;;2.22;0.65;;;22.50;56.40;;;;;;6209375;28;20065;-80
2023/04/23 15:37:08;;;;;;;10.20;0.95;;;22.20;57.20;;;;;;6205334;28;20176;-80
2023/04/23 15:40:11;;;;;;;12.25;1.25;;;21.60;59.40;;;;;;6208289;28;20546;-79
2023/04/23 15:43:13;;;;;;;0.80;0.70;;;21.00;62.10;;;;;;6209270;28;20053;-79
2023/04/23 15:46:15;;;;;;;6.22;0.88;;;20.30;64.90;;;;;;6210829;28;20051;-79